Terminal Aerodrome Forecast
Issued by NWS Albany, NY

Home | Current Version | Previous Version | Text Only | Print | Product List | Glossary On
Versions: 1 2 3 4 5 6 7 8 9 10 11 12 13 14 15 16 17
000
FTUS41 KALY 241700
TAFPOU
TAF
KPOU 241732Z 2418/2518 35007KT P6SM BKN035
     FM250200 VRB03KT P6SM SKC
     FM251300 35006KT P6SM SCT035=

USA.gov is the U.S. government's official web portal to all federal, state and local government web resources and services.